sensor_id;sensor_type;location;lat;lon;timestamp;P1;durP1;ratioP1;P2;durP2;ratioP2
7487;SDS011;3785;52.260;4.728;2023-05-10T00:02:19;16.55;;;10.57;;
7487;SDS011;3785;52.260;4.728;2023-05-10T00:05:40;17.80;;;11.15;;
7487;SDS011;3785;52.260;4.728;2023-05-10T00:09:00;17.55;;;10.75;;
7487;SDS011;3785;52.260;4.728;2023-05-10T00:12:21;18.23;;;11.38;;
7487;SDS011;3785;52.260;4.728;2023-05-10T00:15:41;18.10;;;11.55;;
7487;SDS011;3785;52.260;4.728;2023-05-10T00:19:02;18.33;;;10.80;;
7487;SDS011;3785;52.260;4.728;2023-05-10T00:22:23;19.02;;;10.90;;
7487;SDS011;3785;52.260;4.728;2023-05-10T00:25:43;17.83;;;11.10;;
7487;SDS011;3785;52.260;4.728;2023-05-10T00:29:04;18.45;;;10.75;;
7487;SDS011;3785;52.260;4.728;2023-05-10T00:32:24;19.58;;;11.32;;
7487;SDS011;3785;52.260;4.728;2023-05-10T00:35:45;18.70;;;10.75;;
7487;SDS011;3785;52.260;4.728;2023-05-10T00:39:05;20.38;;;11.23;;
7487;SDS011;3785;52.260;4.728;2023-05-10T00:42:26;19.50;;;10.82;;
7487;SDS011;3785;52.260;4.728;2023-05-10T00:45:47;19.05;;;10.82;;
7487;SDS011;3785;52.260;4.728;2023-05-10T00:49:07;18.75;;;11.27;;
7487;SDS011;3785;52.260;4.728;2023-05-10T00:52:28;15.30;;;9.95;;
7487;SDS011;3785;52.260;4.728;2023-05-10T00:55:49;18.13;;;11.38;;
7487;SDS011;3785;52.260;4.728;2023-05-10T00:59:11;14.40;;;9.73;;
7487;SDS011;3785;52.260;4.728;2023-05-10T01:02:32;13.85;;;10.48;;
7487;SDS011;3785;52.260;4.728;2023-05-10T01:05:56;14.48;;;9.35;;
7487;SDS011;3785;52.260;4.728;2023-05-10T01:09:17;17.77;;;9.55;;
7487;SDS011;3785;52.260;4.728;2023-05-10T01:12:39;15.57;;;9.52;;
7487;SDS011;3785;52.260;4.728;2023-05-10T01:16:01;13.77;;;9.15;;
7487;SDS011;3785;52.260;4.728;2023-05-10T01:19:23;13.43;;;8.85;;
7487;SDS011;3785;52.260;4.728;2023-05-10T01:26:39;15.63;;;9.60;;
7487;SDS011;3785;52.260;4.728;2023-05-10T01:30:36;16.48;;;9.90;;
7487;SDS011;3785;52.260;4.728;2023-05-10T01:34:02;18.45;;;10.52;;
7487;SDS011;3785;52.260;4.728;2023-05-10T01:38:15;18.52;;;9.90;;
7487;SDS011;3785;52.260;4.728;2023-05-10T01:41:14;16.73;;;9.85;;
7487;SDS011;3785;52.260;4.728;2023-05-10T01:44:46;15.85;;;9.68;;
7487;SDS011;3785;52.260;4.728;2023-05-10T01:48:12;19.38;;;10.40;;
7487;SDS011;3785;52.260;4.728;2023-05-10T01:51:53;14.75;;;9.35;;
7487;SDS011;3785;52.260;4.728;2023-05-10T01:55:18;21.27;;;11.32;;
7487;SDS011;3785;52.260;4.728;2023-05-10T01:58:41;21.50;;;12.70;;
7487;SDS011;3785;52.260;4.728;2023-05-10T02:02:05;19.20;;;11.98;;
7487;SDS011;3785;52.260;4.728;2023-05-10T02:05:26;22.25;;;13.07;;
7487;SDS011;3785;52.260;4.728;2023-05-10T02:08:49;22.10;;;14.23;;
7487;SDS011;3785;52.260;4.728;2023-05-10T02:12:09;26.65;;;15.10;;
7487;SDS011;3785;52.260;4.728;2023-05-10T02:15:33;24.80;;;14.13;;
7487;SDS011;3785;52.260;4.728;2023-05-10T02:18:54;26.05;;;14.40;;
7487;SDS011;3785;52.260;4.728;2023-05-10T02:22:17;25.30;;;14.20;;
7487;SDS011;3785;52.260;4.728;2023-05-10T02:25:38;25.17;;;14.23;;
7487;SDS011;3785;52.260;4.728;2023-05-10T02:28:59;27.90;;;15.02;;
7487;SDS011;3785;52.260;4.728;2023-05-10T02:32:24;27.15;;;14.73;;
7487;SDS011;3785;52.260;4.728;2023-05-10T02:35:46;24.33;;;13.20;;
7487;SDS011;3785;52.260;4.728;2023-05-10T02:39:07;27.20;;;14.43;;
7487;SDS011;3785;52.260;4.728;2023-05-10T02:42:33;26.33;;;14.25;;
7487;SDS011;3785;52.260;4.728;2023-05-10T02:45:55;27.23;;;14.50;;
7487;SDS011;3785;52.260;4.728;2023-05-10T02:49:16;22.80;;;13.60;;
7487;SDS011;3785;52.260;4.728;2023-05-10T02:52:39;27.52;;;14.80;;
7487;SDS011;3785;52.260;4.728;2023-05-10T02:56:04;24.73;;;14.25;;
7487;SDS011;3785;52.260;4.728;2023-05-10T02:59:27;24.30;;;12.07;;
7487;SDS011;3785;52.260;4.728;2023-05-10T03:02:47;24.77;;;13.82;;
7487;SDS011;3785;52.260;4.728;2023-05-10T03:06:08;22.98;;;12.85;;
7487;SDS011;3785;52.260;4.728;2023-05-10T03:09:29;21.70;;;13.68;;
7487;SDS011;3785;52.260;4.728;2023-05-10T03:17:06;22.83;;;11.90;;
7487;SDS011;3785;52.260;4.728;2023-05-10T03:20:54;31.48;;;13.85;;
7487;SDS011;3785;52.260;4.728;2023-05-10T03:24:12;25.17;;;13.77;;
7487;SDS011;3785;52.260;4.728;2023-05-10T03:27:35;24.83;;;12.95;;
7487;SDS011;3785;52.260;4.728;2023-05-10T03:30:56;23.95;;;11.38;;
7487;SDS011;3785;52.260;4.728;2023-05-10T03:34:22;21.73;;;9.00;;
7487;SDS011;3785;52.260;4.728;2023-05-10T03:37:43;16.55;;;8.23;;
7487;SDS011;3785;52.260;4.728;2023-05-10T03:41:04;12.05;;;7.10;;
7487;SDS011;3785;52.260;4.728;2023-05-10T03:44:25;15.95;;;7.32;;
7487;SDS011;3785;52.260;4.728;2023-05-10T03:47:45;11.40;;;5.72;;
7487;SDS011;3785;52.260;4.728;2023-05-10T03:51:06;11.80;;;5.47;;
7487;SDS011;3785;52.260;4.728;2023-05-10T03:54:26;9.77;;;5.38;;
7487;SDS011;3785;52.260;4.728;2023-05-10T03:57:47;10.45;;;5.57;;
7487;SDS011;3785;52.260;4.728;2023-05-10T04:01:09;11.95;;;5.95;;
7487;SDS011;3785;52.260;4.728;2023-05-10T04:04:30;9.48;;;5.15;;
7487;SDS011;3785;52.260;4.728;2023-05-10T04:07:50;10.35;;;5.40;;
7487;SDS011;3785;52.260;4.728;2023-05-10T04:11:11;10.27;;;5.63;;
7487;SDS011;3785;52.260;4.728;2023-05-10T04:14:32;11.38;;;5.80;;
7487;SDS011;3785;52.260;4.728;2023-05-10T04:17:53;11.63;;;5.95;;
7487;SDS011;3785;52.260;4.728;2023-05-10T04:21:13;13.63;;;6.32;;
7487;SDS011;3785;52.260;4.728;2023-05-10T04:24:34;14.23;;;6.55;;
7487;SDS011;3785;52.260;4.728;2023-05-10T04:27:55;16.48;;;6.75;;
7487;SDS011;3785;52.260;4.728;2023-05-10T04:31:15;15.27;;;6.97;;
7487;SDS011;3785;52.260;4.728;2023-05-10T04:34:36;14.48;;;5.72;;
7487;SDS011;3785;52.260;4.728;2023-05-10T04:37:57;14.32;;;5.95;;
7487;SDS011;3785;52.260;4.728;2023-05-10T04:41:17;13.50;;;6.22;;
7487;SDS011;3785;52.260;4.728;2023-05-10T04:44:38;11.23;;;5.93;;
7487;SDS011;3785;52.260;4.728;2023-05-10T04:47:58;12.10;;;5.88;;
7487;SDS011;3785;52.260;4.728;2023-05-10T04:51:19;11.30;;;5.88;;
7487;SDS011;3785;52.260;4.728;2023-05-10T04:54:40;11.20;;;6.43;;
7487;SDS011;3785;52.260;4.728;2023-05-10T04:58:00;12.40;;;5.65;;
7487;SDS011;3785;52.260;4.728;2023-05-10T05:01:22;10.30;;;5.97;;
7487;SDS011;3785;52.260;4.728;2023-05-10T05:04:43;12.38;;;6.15;;
7487;SDS011;3785;52.260;4.728;2023-05-10T05:08:03;12.05;;;6.00;;
7487;SDS011;3785;52.260;4.728;2023-05-10T05:11:24;10.75;;;5.85;;
7487;SDS011;3785;52.260;4.728;2023-05-10T05:14:45;11.18;;;6.20;;
7487;SDS011;3785;52.260;4.728;2023-05-10T05:18:06;13.27;;;6.60;;
7487;SDS011;3785;52.260;4.728;2023-05-10T05:21:27;16.60;;;6.13;;
7487;SDS011;3785;52.260;4.728;2023-05-10T05:24:48;14.10;;;6.10;;
7487;SDS011;3785;52.260;4.728;2023-05-10T05:28:09;11.32;;;6.15;;
7487;SDS011;3785;52.260;4.728;2023-05-10T05:31:29;12.55;;;6.15;;
7487;SDS011;3785;52.260;4.728;2023-05-10T05:34:50;13.18;;;5.90;;
7487;SDS011;3785;52.260;4.728;2023-05-10T05:38:11;13.00;;;6.82;;
7487;SDS011;3785;52.260;4.728;2023-05-10T05:41:32;12.68;;;5.68;;
7487;SDS011;3785;52.260;4.728;2023-05-10T05:44:52;12.38;;;6.82;;
7487;SDS011;3785;52.260;4.728;2023-05-10T05:48:13;12.77;;;6.45;;
7487;SDS011;3785;52.260;4.728;2023-05-10T05:51:33;13.82;;;6.43;;
7487;SDS011;3785;52.260;4.728;2023-05-10T05:54:55;12.95;;;5.82;;
7487;SDS011;3785;52.260;4.728;2023-05-10T05:58:16;13.57;;;5.53;;
7487;SDS011;3785;52.260;4.728;2023-05-10T06:01:36;11.88;;;5.60;;
7487;SDS011;3785;52.260;4.728;2023-05-10T06:04:57;12.25;;;6.63;;
7487;SDS011;3785;52.260;4.728;2023-05-10T06:08:17;13.95;;;5.88;;
7487;SDS011;3785;52.260;4.728;2023-05-10T06:11:38;14.02;;;6.00;;
7487;SDS011;3785;52.260;4.728;2023-05-10T06:14:58;14.40;;;6.55;;
7487;SDS011;3785;52.260;4.728;2023-05-10T06:18:19;12.23;;;6.60;;
7487;SDS011;3785;52.260;4.728;2023-05-10T06:21:39;11.57;;;6.07;;
7487;SDS011;3785;52.260;4.728;2023-05-10T06:25:00;13.23;;;5.93;;
7487;SDS011;3785;52.260;4.728;2023-05-10T06:28:21;13.77;;;6.45;;
7487;SDS011;3785;52.260;4.728;2023-05-10T06:31:42;11.52;;;6.43;;
7487;SDS011;3785;52.260;4.728;2023-05-10T06:35:03;14.73;;;6.78;;
7487;SDS011;3785;52.260;4.728;2023-05-10T06:38:23;13.18;;;5.97;;
7487;SDS011;3785;52.260;4.728;2023-05-10T06:41:44;11.45;;;5.30;;
7487;SDS011;3785;52.260;4.728;2023-05-10T06:45:05;11.73;;;6.05;;
7487;SDS011;3785;52.260;4.728;2023-05-10T06:48:26;11.48;;;5.97;;
7487;SDS011;3785;52.260;4.728;2023-05-10T06:51:46;9.77;;;5.32;;
7487;SDS011;3785;52.260;4.728;2023-05-10T06:55:08;12.30;;;6.00;;
7487;SDS011;3785;52.260;4.728;2023-05-10T06:58:30;8.98;;;5.05;;
7487;SDS011;3785;52.260;4.728;2023-05-10T07:01:52;7.80;;;5.10;;
7487;SDS011;3785;52.260;4.728;2023-05-10T07:05:13;8.60;;;4.45;;
7487;SDS011;3785;52.260;4.728;2023-05-10T07:08:35;7.90;;;4.15;;
7487;SDS011;3785;52.260;4.728;2023-05-10T07:11:55;6.10;;;3.90;;
7487;SDS011;3785;52.260;4.728;2023-05-10T07:15:17;7.32;;;4.07;;
7487;SDS011;3785;52.260;4.728;2023-05-10T07:18:38;6.65;;;3.72;;
7487;SDS011;3785;52.260;4.728;2023-05-10T07:21:58;6.13;;;3.53;;
7487;SDS011;3785;52.260;4.728;2023-05-10T07:25:19;4.70;;;3.05;;
7487;SDS011;3785;52.260;4.728;2023-05-10T07:28:39;6.63;;;3.47;;
7487;SDS011;3785;52.260;4.728;2023-05-10T07:32:00;7.22;;;3.40;;
7487;SDS011;3785;52.260;4.728;2023-05-10T07:35:21;4.65;;;3.05;;
7487;SDS011;3785;52.260;4.728;2023-05-10T07:38:41;4.80;;;3.10;;
7487;SDS011;3785;52.260;4.728;2023-05-10T07:42:02;4.50;;;2.70;;
7487;SDS011;3785;52.260;4.728;2023-05-10T07:45:23;4.55;;;2.78;;
7487;SDS011;3785;52.260;4.728;2023-05-10T07:48:43;4.38;;;2.85;;
7487;SDS011;3785;52.260;4.728;2023-05-10T07:52:04;4.85;;;3.17;;
7487;SDS011;3785;52.260;4.728;2023-05-10T07:55:24;4.60;;;3.42;;
7487;SDS011;3785;52.260;4.728;2023-05-10T07:58:46;5.70;;;2.67;;
7487;SDS011;3785;52.260;4.728;2023-05-10T08:02:06;5.03;;;3.17;;
7487;SDS011;3785;52.260;4.728;2023-05-10T08:05:27;6.40;;;3.70;;
7487;SDS011;3785;52.260;4.728;2023-05-10T08:08:48;4.65;;;2.80;;
7487;SDS011;3785;52.260;4.728;2023-05-10T08:12:12;4.72;;;3.30;;
7487;SDS011;3785;52.260;4.728;2023-05-10T08:15:32;4.20;;;2.83;;
7487;SDS011;3785;52.260;4.728;2023-05-10T08:18:53;3.95;;;2.60;;
7487;SDS011;3785;52.260;4.728;2023-05-10T08:22:15;5.00;;;3.30;;
7487;SDS011;3785;52.260;4.728;2023-05-10T08:25:36;4.20;;;2.55;;
7487;SDS011;3785;52.260;4.728;2023-05-10T08:28:56;5.20;;;2.75;;
7487;SDS011;3785;52.260;4.728;2023-05-10T08:32:17;4.10;;;2.90;;
7487;SDS011;3785;52.260;4.728;2023-05-10T08:35:38;5.28;;;2.67;;
7487;SDS011;3785;52.260;4.728;2023-05-10T08:38:58;4.78;;;2.75;;
7487;SDS011;3785;52.260;4.728;2023-05-10T08:42:19;3.60;;;2.58;;
7487;SDS011;3785;52.260;4.728;2023-05-10T08:45:43;4.15;;;2.78;;
7487;SDS011;3785;52.260;4.728;2023-05-10T08:49:07;4.90;;;2.65;;
7487;SDS011;3785;52.260;4.728;2023-05-10T08:52:28;5.05;;;3.33;;
7487;SDS011;3785;52.260;4.728;2023-05-10T08:55:50;4.20;;;2.45;;
7487;SDS011;3785;52.260;4.728;2023-05-10T08:59:10;5.95;;;2.85;;
7487;SDS011;3785;52.260;4.728;2023-05-10T09:02:33;5.18;;;3.08;;
7487;SDS011;3785;52.260;4.728;2023-05-10T09:05:54;4.07;;;2.50;;
7487;SDS011;3785;52.260;4.728;2023-05-10T09:09:18;5.65;;;2.67;;
7487;SDS011;3785;52.260;4.728;2023-05-10T09:12:39;5.78;;;3.00;;
7487;SDS011;3785;52.260;4.728;2023-05-10T09:16:00;4.00;;;2.35;;
7487;SDS011;3785;52.260;4.728;2023-05-10T09:19:21;4.35;;;2.78;;
7487;SDS011;3785;52.260;4.728;2023-05-10T09:22:42;3.28;;;2.25;;
7487;SDS011;3785;52.260;4.728;2023-05-10T09:26:05;6.28;;;3.22;;
7487;SDS011;3785;52.260;4.728;2023-05-10T09:29:26;3.97;;;2.35;;
7487;SDS011;3785;52.260;4.728;2023-05-10T09:32:59;3.35;;;2.20;;
7487;SDS011;3785;52.260;4.728;2023-05-10T09:36:20;3.33;;;2.30;;
7487;SDS011;3785;52.260;4.728;2023-05-10T09:39:41;3.97;;;2.30;;
7487;SDS011;3785;52.260;4.728;2023-05-10T09:43:08;3.25;;;1.88;;
7487;SDS011;3785;52.260;4.728;2023-05-10T09:46:28;5.25;;;2.28;;
7487;SDS011;3785;52.260;4.728;2023-05-10T09:49:49;3.22;;;2.33;;
7487;SDS011;3785;52.260;4.728;2023-05-10T09:53:11;5.45;;;2.80;;
7487;SDS011;3785;52.260;4.728;2023-05-10T09:56:35;3.72;;;2.42;;
7487;SDS011;3785;52.260;4.728;2023-05-10T09:59:59;4.30;;;2.38;;
7487;SDS011;3785;52.260;4.728;2023-05-10T10:03:20;4.32;;;2.20;;
7487;SDS011;3785;52.260;4.728;2023-05-10T10:06:41;5.18;;;2.67;;
7487;SDS011;3785;52.260;4.728;2023-05-10T10:10:02;4.05;;;2.78;;
7487;SDS011;3785;52.260;4.728;2023-05-10T10:13:23;5.32;;;3.08;;
7487;SDS011;3785;52.260;4.728;2023-05-10T10:16:44;6.22;;;2.72;;
7487;SDS011;3785;52.260;4.728;2023-05-10T10:20:05;4.45;;;2.55;;
7487;SDS011;3785;52.260;4.728;2023-05-10T10:23:27;3.25;;;2.22;;
7487;SDS011;3785;52.260;4.728;2023-05-10T10:26:47;4.05;;;2.20;;
7487;SDS011;3785;52.260;4.728;2023-05-10T10:33:55;3.83;;;1.90;;
7487;SDS011;3785;52.260;4.728;2023-05-10T10:37:21;3.88;;;2.10;;
7487;SDS011;3785;52.260;4.728;2023-05-10T10:40:42;4.68;;;2.20;;
7487;SDS011;3785;52.260;4.728;2023-05-10T10:47:45;2.25;;;1.20;;
7487;SDS011;3785;52.260;4.728;2023-05-10T10:51:06;2.40;;;1.60;;
7487;SDS011;3785;52.260;4.728;2023-05-10T10:54:27;4.53;;;2.90;;
7487;SDS011;3785;52.260;4.728;2023-05-10T10:57:49;6.35;;;3.75;;
7487;SDS011;3785;52.260;4.728;2023-05-10T11:01:20;5.03;;;3.22;;
7487;SDS011;3785;52.260;4.728;2023-05-10T11:04:41;7.05;;;3.88;;
7487;SDS011;3785;52.260;4.728;2023-05-10T11:08:13;6.28;;;4.10;;
7487;SDS011;3785;52.260;4.728;2023-05-10T11:11:48;8.70;;;4.50;;
7487;SDS011;3785;52.260;4.728;2023-05-10T11:15:11;7.70;;;4.20;;
7487;SDS011;3785;52.260;4.728;2023-05-10T11:18:31;7.72;;;4.53;;
7487;SDS011;3785;52.260;4.728;2023-05-10T11:25:28;9.07;;;4.88;;
7487;SDS011;3785;52.260;4.728;2023-05-10T11:28:48;7.22;;;4.30;;
7487;SDS011;3785;52.260;4.728;2023-05-10T11:32:09;7.50;;;4.38;;
7487;SDS011;3785;52.260;4.728;2023-05-10T11:35:30;7.18;;;4.72;;
7487;SDS011;3785;52.260;4.728;2023-05-10T11:38:50;8.35;;;4.68;;
7487;SDS011;3785;52.260;4.728;2023-05-10T11:42:11;8.77;;;4.95;;
7487;SDS011;3785;52.260;4.728;2023-05-10T11:45:32;8.52;;;4.88;;
7487;SDS011;3785;52.260;4.728;2023-05-10T11:48:58;9.93;;;5.75;;
7487;SDS011;3785;52.260;4.728;2023-05-10T11:52:24;11.20;;;5.43;;
7487;SDS011;3785;52.260;4.728;2023-05-10T11:55:44;10.70;;;5.68;;
7487;SDS011;3785;52.260;4.728;2023-05-10T11:59:05;11.43;;;5.32;;
7487;SDS011;3785;52.260;4.728;2023-05-10T12:02:26;11.90;;;5.70;;
7487;SDS011;3785;52.260;4.728;2023-05-10T12:05:46;11.63;;;5.40;;
7487;SDS011;3785;52.260;4.728;2023-05-10T12:09:07;11.65;;;5.53;;
7487;SDS011;3785;52.260;4.728;2023-05-10T12:12:34;8.63;;;4.68;;
7487;SDS011;3785;52.260;4.728;2023-05-10T12:15:59;7.13;;;4.00;;
7487;SDS011;3785;52.260;4.728;2023-05-10T12:19:38;8.68;;;4.78;;
7487;SDS011;3785;52.260;4.728;2023-05-10T12:22:59;11.65;;;5.32;;
7487;SDS011;3785;52.260;4.728;2023-05-10T12:26:23;8.02;;;4.18;;
7487;SDS011;3785;52.260;4.728;2023-05-10T12:29:46;11.18;;;5.00;;
7487;SDS011;3785;52.260;4.728;2023-05-10T12:33:09;7.20;;;3.35;;
7487;SDS011;3785;52.260;4.728;2023-05-10T12:36:30;6.07;;;3.28;;
7487;SDS011;3785;52.260;4.728;2023-05-10T12:39:51;8.32;;;4.38;;
7487;SDS011;3785;52.260;4.728;2023-05-10T12:43:11;8.48;;;3.75;;
7487;SDS011;3785;52.260;4.728;2023-05-10T12:46:32;8.90;;;4.30;;
7487;SDS011;3785;52.260;4.728;2023-05-10T12:49:53;7.95;;;4.05;;
7487;SDS011;3785;52.260;4.728;2023-05-10T12:53:14;8.65;;;3.97;;
7487;SDS011;3785;52.260;4.728;2023-05-10T12:56:35;6.82;;;3.67;;
7487;SDS011;3785;52.260;4.728;2023-05-10T12:59:56;6.97;;;4.10;;
7487;SDS011;3785;52.260;4.728;2023-05-10T13:03:17;7.55;;;4.32;;
7487;SDS011;3785;52.260;4.728;2023-05-10T13:06:38;6.85;;;3.58;;
7487;SDS011;3785;52.260;4.728;2023-05-10T13:09:58;7.65;;;3.55;;
7487;SDS011;3785;52.260;4.728;2023-05-10T13:13:19;7.75;;;3.90;;
7487;SDS011;3785;52.260;4.728;2023-05-10T13:16:40;7.32;;;4.00;;
7487;SDS011;3785;52.260;4.728;2023-05-10T13:20:00;6.70;;;3.58;;
7487;SDS011;3785;52.260;4.728;2023-05-10T13:23:21;7.22;;;4.28;;
7487;SDS011;3785;52.260;4.728;2023-05-10T13:26:41;7.43;;;4.05;;
7487;SDS011;3785;52.260;4.728;2023-05-10T13:30:02;6.85;;;3.60;;
7487;SDS011;3785;52.260;4.728;2023-05-10T13:33:23;4.25;;;2.50;;
7487;SDS011;3785;52.260;4.728;2023-05-10T13:36:44;4.85;;;2.80;;
7487;SDS011;3785;52.260;4.728;2023-05-10T13:40:05;4.60;;;2.47;;
7487;SDS011;3785;52.260;4.728;2023-05-10T13:43:26;6.03;;;2.50;;
7487;SDS011;3785;52.260;4.728;2023-05-10T13:46:47;4.72;;;3.13;;
7487;SDS011;3785;52.260;4.728;2023-05-10T13:50:08;4.50;;;2.78;;
7487;SDS011;3785;52.260;4.728;2023-05-10T13:53:28;5.55;;;3.30;;
7487;SDS011;3785;52.260;4.728;2023-05-10T13:56:49;5.13;;;2.80;;
7487;SDS011;3785;52.260;4.728;2023-05-10T14:00:10;5.45;;;3.72;;
7487;SDS011;3785;52.260;4.728;2023-05-10T14:03:31;4.60;;;2.85;;
7487;SDS011;3785;52.260;4.728;2023-05-10T14:06:52;7.97;;;3.50;;
7487;SDS011;3785;52.260;4.728;2023-05-10T14:10:13;6.20;;;2.95;;
7487;SDS011;3785;52.260;4.728;2023-05-10T14:13:33;6.78;;;3.60;;
7487;SDS011;3785;52.260;4.728;2023-05-10T14:16:54;4.68;;;2.80;;
7487;SDS011;3785;52.260;4.728;2023-05-10T14:20:14;5.78;;;3.08;;
7487;SDS011;3785;52.260;4.728;2023-05-10T14:23:35;5.63;;;3.63;;
7487;SDS011;3785;52.260;4.728;2023-05-10T14:26:55;4.45;;;2.50;;
7487;SDS011;3785;52.260;4.728;2023-05-10T14:30:16;4.15;;;2.40;;
7487;SDS011;3785;52.260;4.728;2023-05-10T14:33:37;4.22;;;2.88;;
7487;SDS011;3785;52.260;4.728;2023-05-10T14:36:57;4.15;;;2.63;;
7487;SDS011;3785;52.260;4.728;2023-05-10T14:40:18;4.30;;;3.00;;
7487;SDS011;3785;52.260;4.728;2023-05-10T14:43:39;8.45;;;4.13;;
7487;SDS011;3785;52.260;4.728;2023-05-10T14:47:01;6.75;;;3.90;;
7487;SDS011;3785;52.260;4.728;2023-05-10T14:50:22;7.68;;;3.75;;
7487;SDS011;3785;52.260;4.728;2023-05-10T14:53:42;7.13;;;4.32;;
7487;SDS011;3785;52.260;4.728;2023-05-10T14:57:03;8.02;;;4.25;;
7487;SDS011;3785;52.260;4.728;2023-05-10T15:00:24;9.02;;;3.78;;
7487;SDS011;3785;52.260;4.728;2023-05-10T15:03:44;8.98;;;4.07;;
7487;SDS011;3785;52.260;4.728;2023-05-10T15:07:05;7.68;;;4.15;;
7487;SDS011;3785;52.260;4.728;2023-05-10T15:10:25;8.82;;;4.22;;
7487;SDS011;3785;52.260;4.728;2023-05-10T15:13:46;7.97;;;4.60;;
7487;SDS011;3785;52.260;4.728;2023-05-10T15:17:07;8.02;;;4.50;;
7487;SDS011;3785;52.260;4.728;2023-05-10T15:20:27;8.13;;;4.25;;
7487;SDS011;3785;52.260;4.728;2023-05-10T15:23:48;9.35;;;4.10;;
7487;SDS011;3785;52.260;4.728;2023-05-10T15:27:08;10.60;;;5.03;;
7487;SDS011;3785;52.260;4.728;2023-05-10T15:30:29;8.10;;;4.55;;
7487;SDS011;3785;52.260;4.728;2023-05-10T15:33:50;9.85;;;5.45;;
7487;SDS011;3785;52.260;4.728;2023-05-10T15:37:11;12.45;;;5.50;;
7487;SDS011;3785;52.260;4.728;2023-05-10T15:40:31;9.07;;;4.88;;
7487;SDS011;3785;52.260;4.728;2023-05-10T15:43:53;8.52;;;4.55;;
7487;SDS011;3785;52.260;4.728;2023-05-10T15:47:13;8.70;;;4.88;;
7487;SDS011;3785;52.260;4.728;2023-05-10T15:50:34;8.93;;;5.20;;
7487;SDS011;3785;52.260;4.728;2023-05-10T15:53:55;8.75;;;4.53;;
7487;SDS011;3785;52.260;4.728;2023-05-10T15:57:15;7.68;;;4.80;;
7487;SDS011;3785;52.260;4.728;2023-05-10T16:00:36;7.00;;;4.07;;
7487;SDS011;3785;52.260;4.728;2023-05-10T16:03:58;6.55;;;3.85;;
7487;SDS011;3785;52.260;4.728;2023-05-10T16:07:18;10.05;;;4.78;;
7487;SDS011;3785;52.260;4.728;2023-05-10T16:10:39;7.93;;;4.63;;
7487;SDS011;3785;52.260;4.728;2023-05-10T16:14:00;9.50;;;4.38;;
7487;SDS011;3785;52.260;4.728;2023-05-10T16:17:21;6.53;;;3.97;;
7487;SDS011;3785;52.260;4.728;2023-05-10T16:20:41;8.13;;;4.40;;
7487;SDS011;3785;52.260;4.728;2023-05-10T16:24:02;6.13;;;4.10;;
7487;SDS011;3785;52.260;4.728;2023-05-10T16:27:23;5.47;;;3.58;;
7487;SDS011;3785;52.260;4.728;2023-05-10T16:30:44;6.57;;;4.20;;
7487;SDS011;3785;52.260;4.728;2023-05-10T16:34:06;6.93;;;4.32;;
7487;SDS011;3785;52.260;4.728;2023-05-10T16:37:26;8.43;;;4.63;;
7487;SDS011;3785;52.260;4.728;2023-05-10T16:40:47;5.63;;;3.13;;
7487;SDS011;3785;52.260;4.728;2023-05-10T16:44:08;7.80;;;4.30;;
7487;SDS011;3785;52.260;4.728;2023-05-10T16:47:28;5.82;;;3.97;;
7487;SDS011;3785;52.260;4.728;2023-05-10T16:50:49;6.72;;;4.10;;
7487;SDS011;3785;52.260;4.728;2023-05-10T16:54:09;7.25;;;4.15;;
7487;SDS011;3785;52.260;4.728;2023-05-10T16:57:30;7.13;;;4.28;;
7487;SDS011;3785;52.260;4.728;2023-05-10T17:00:51;7.75;;;4.25;;
7487;SDS011;3785;52.260;4.728;2023-05-10T17:04:12;5.85;;;3.80;;
7487;SDS011;3785;52.260;4.728;2023-05-10T17:07:33;6.05;;;3.50;;
7487;SDS011;3785;52.260;4.728;2023-05-10T17:10:53;6.53;;;3.65;;
7487;SDS011;3785;52.260;4.728;2023-05-10T17:14:15;7.97;;;3.92;;
7487;SDS011;3785;52.260;4.728;2023-05-10T17:17:35;5.82;;;3.80;;
7487;SDS011;3785;52.260;4.728;2023-05-10T17:20:56;6.75;;;3.38;;
7487;SDS011;3785;52.260;4.728;2023-05-10T17:24:17;5.88;;;3.15;;
7487;SDS011;3785;52.260;4.728;2023-05-10T17:27:37;5.80;;;3.33;;
7487;SDS011;3785;52.260;4.728;2023-05-10T17:30:58;6.78;;;3.67;;
7487;SDS011;3785;52.260;4.728;2023-05-10T17:34:19;5.57;;;3.35;;
7487;SDS011;3785;52.260;4.728;2023-05-10T17:37:40;6.25;;;3.65;;
7487;SDS011;3785;52.260;4.728;2023-05-10T17:41:01;6.18;;;3.63;;
7487;SDS011;3785;52.260;4.728;2023-05-10T17:44:21;5.75;;;3.45;;
7487;SDS011;3785;52.260;4.728;2023-05-10T17:47:44;5.68;;;3.53;;
7487;SDS011;3785;52.260;4.728;2023-05-10T17:51:05;6.47;;;3.88;;
7487;SDS011;3785;52.260;4.728;2023-05-10T17:54:25;7.15;;;3.85;;
7487;SDS011;3785;52.260;4.728;2023-05-10T17:57:46;5.95;;;3.60;;
7487;SDS011;3785;52.260;4.728;2023-05-10T18:01:06;6.18;;;3.63;;
7487;SDS011;3785;52.260;4.728;2023-05-10T18:04:27;5.32;;;3.03;;
7487;SDS011;3785;52.260;4.728;2023-05-10T18:07:48;5.57;;;3.17;;
7487;SDS011;3785;52.260;4.728;2023-05-10T18:11:08;4.32;;;2.78;;
7487;SDS011;3785;52.260;4.728;2023-05-10T18:14:29;5.25;;;3.30;;
7487;SDS011;3785;52.260;4.728;2023-05-10T18:17:50;6.25;;;3.42;;
7487;SDS011;3785;52.260;4.728;2023-05-10T18:21:10;5.90;;;2.92;;
7487;SDS011;3785;52.260;4.728;2023-05-10T18:24:31;6.13;;;3.55;;
7487;SDS011;3785;52.260;4.728;2023-05-10T18:27:52;4.88;;;3.25;;
7487;SDS011;3785;52.260;4.728;2023-05-10T18:31:13;4.75;;;2.70;;
7487;SDS011;3785;52.260;4.728;2023-05-10T18:34:33;4.40;;;2.65;;
7487;SDS011;3785;52.260;4.728;2023-05-10T18:37:54;6.70;;;3.33;;
7487;SDS011;3785;52.260;4.728;2023-05-10T18:41:15;4.50;;;2.85;;
7487;SDS011;3785;52.260;4.728;2023-05-10T18:44:35;4.05;;;3.03;;
7487;SDS011;3785;52.260;4.728;2023-05-10T18:47:56;4.85;;;3.05;;
7487;SDS011;3785;52.260;4.728;2023-05-10T18:51:16;5.32;;;3.17;;
7487;SDS011;3785;52.260;4.728;2023-05-10T18:54:37;5.10;;;3.15;;
7487;SDS011;3785;52.260;4.728;2023-05-10T18:57:58;6.28;;;3.33;;
7487;SDS011;3785;52.260;4.728;2023-05-10T19:01:19;7.38;;;4.10;;
7487;SDS011;3785;52.260;4.728;2023-05-10T19:04:40;6.53;;;3.85;;
7487;SDS011;3785;52.260;4.728;2023-05-10T19:08:00;8.35;;;4.20;;
7487;SDS011;3785;52.260;4.728;2023-05-10T19:11:21;7.22;;;4.00;;
7487;SDS011;3785;52.260;4.728;2023-05-10T19:14:41;8.02;;;4.32;;
7487;SDS011;3785;52.260;4.728;2023-05-10T19:18:02;8.05;;;4.40;;
7487;SDS011;3785;52.260;4.728;2023-05-10T19:21:23;7.65;;;4.15;;
7487;SDS011;3785;52.260;4.728;2023-05-10T19:24:43;7.53;;;4.45;;
7487;SDS011;3785;52.260;4.728;2023-05-10T19:28:04;7.40;;;4.28;;
7487;SDS011;3785;52.260;4.728;2023-05-10T19:31:25;6.13;;;4.00;;
7487;SDS011;3785;52.260;4.728;2023-05-10T19:34:45;8.93;;;5.00;;
7487;SDS011;3785;52.260;4.728;2023-05-10T19:38:06;8.15;;;5.03;;
7487;SDS011;3785;52.260;4.728;2023-05-10T19:41:26;8.63;;;5.03;;
7487;SDS011;3785;52.260;4.728;2023-05-10T19:44:48;7.47;;;4.75;;
7487;SDS011;3785;52.260;4.728;2023-05-10T19:48:08;7.13;;;4.55;;
7487;SDS011;3785;52.260;4.728;2023-05-10T19:51:29;7.57;;;4.28;;
7487;SDS011;3785;52.260;4.728;2023-05-10T19:54:49;7.20;;;4.43;;
7487;SDS011;3785;52.260;4.728;2023-05-10T19:58:10;7.97;;;4.38;;
7487;SDS011;3785;52.260;4.728;2023-05-10T20:01:30;8.52;;;5.20;;
7487;SDS011;3785;52.260;4.728;2023-05-10T20:04:51;7.53;;;4.70;;
7487;SDS011;3785;52.260;4.728;2023-05-10T20:08:12;7.93;;;4.95;;
7487;SDS011;3785;52.260;4.728;2023-05-10T20:11:32;7.22;;;4.78;;
7487;SDS011;3785;52.260;4.728;2023-05-10T20:14:53;7.10;;;4.40;;
7487;SDS011;3785;52.260;4.728;2023-05-10T20:18:13;9.00;;;4.80;;
7487;SDS011;3785;52.260;4.728;2023-05-10T20:21:34;7.50;;;4.82;;
7487;SDS011;3785;52.260;4.728;2023-05-10T20:24:55;8.57;;;4.90;;
7487;SDS011;3785;52.260;4.728;2023-05-10T20:28:19;8.27;;;4.93;;
7487;SDS011;3785;52.260;4.728;2023-05-10T20:31:44;8.13;;;4.95;;
7487;SDS011;3785;52.260;4.728;2023-05-10T20:35:04;9.35;;;5.43;;
7487;SDS011;3785;52.260;4.728;2023-05-10T20:38:26;9.07;;;5.88;;
7487;SDS011;3785;52.260;4.728;2023-05-10T20:41:46;9.65;;;5.88;;
7487;SDS011;3785;52.260;4.728;2023-05-10T20:45:08;9.30;;;6.40;;
7487;SDS011;3785;52.260;4.728;2023-05-10T20:48:30;9.23;;;5.22;;
7487;SDS011;3785;52.260;4.728;2023-05-10T20:51:52;9.32;;;5.53;;
7487;SDS011;3785;52.260;4.728;2023-05-10T20:55:13;9.90;;;5.65;;
7487;SDS011;3785;52.260;4.728;2023-05-10T20:58:33;8.50;;;5.40;;
7487;SDS011;3785;52.260;4.728;2023-05-10T21:01:55;9.00;;;5.55;;